createdAt,value
2023-05-13T00:00:04.576Z,96167.28
2023-05-13T00:02:33.250Z,96166.38
2023-05-13T00:05:02.670Z,96164.59
2023-05-13T00:07:34.528Z,96139.44
2023-05-13T00:10:02.928Z,96160.31
2023-05-13T00:12:33.036Z,96156.72
2023-05-13T00:15:05.435Z,96139.47
2023-05-13T00:17:33.972Z,96157.50
2023-05-13T00:20:02.961Z,96149.94
2023-05-13T00:22:31.788Z,96149.94
2023-05-13T00:25:01.221Z,96141.38
2023-05-13T00:27:29.843Z,96150.53
2023-05-13T00:30:01.278Z,96156.38
2023-05-13T00:32:29.773Z,96155.66
2023-05-13T00:34:58.889Z,96154.97
2023-05-13T00:37:29.432Z,96148.94
2023-05-13T00:39:58.652Z,96151.47
2023-05-13T00:42:30.427Z,96152.19
2023-05-13T00:45:00.454Z,96158.09
2023-05-13T00:47:29.492Z,96150.31
2023-05-13T00:49:59.401Z,96150.31
2023-05-13T00:52:28.322Z,96152.88
2023-05-13T00:54:57.428Z,96153.81
2023-05-13T00:57:26.305Z,96159.88
2023-05-13T00:59:56.289Z,96153.69
2023-05-13T01:02:32.612Z,96157.19
2023-05-13T01:05:07.653Z,96157.06
2023-05-13T01:07:46.875Z,96154.50
2023-05-13T01:10:19.973Z,96158.94
2023-05-13T01:12:50.914Z,96150.78
2023-05-13T01:15:24.013Z,96160.78
2023-05-13T01:17:57.786Z,96150.53
2023-05-13T01:20:27.929Z,96158.09
2023-05-13T01:22:58.668Z,96157.19
2023-05-13T01:25:27.588Z,96157.19
2023-05-13T01:27:56.252Z,96159.75
2023-05-13T01:30:27.776Z,96158.34
2023-05-13T01:32:57.036Z,96160.78
2023-05-13T01:35:26.873Z,96157.31
2023-05-13T01:37:57.929Z,96153.09
2023-05-13T01:40:32.748Z,96160.53
2023-05-13T01:43:01.928Z,96160.66
2023-05-13T01:45:31.170Z,96170.00
2023-05-13T01:48:00.182Z,96161.38
2023-05-13T01:50:29.258Z,96164.03
2023-05-13T01:52:59.475Z,96156.50
2023-05-13T01:55:28.254Z,96166.72
2023-05-13T01:57:56.847Z,96165.91
2023-05-13T02:00:26.655Z,96167.56
2023-05-13T02:02:55.715Z,96160.66
2023-05-13T02:05:24.553Z,96160.78
2023-05-13T02:07:53.210Z,96162.50
2023-05-13T02:10:23.579Z,96165.00
2023-05-13T02:12:52.462Z,96167.63
2023-05-13T02:15:21.490Z,96160.78
2023-05-13T02:17:50.001Z,96160.66
2023-05-13T02:20:19.069Z,96158.94
2023-05-13T02:22:48.176Z,96155.53
2023-05-13T02:25:17.042Z,96152.88
2023-05-13T02:27:47.061Z,96153.56
2023-05-13T02:30:16.272Z,96155.22
2023-05-13T02:32:45.247Z,96147.63
2023-05-13T02:35:14.614Z,96150.91
2023-05-13T02:37:43.909Z,96150.91
2023-05-13T02:40:13.892Z,96137.50
2023-05-13T02:42:43.586Z,96148.22
2023-05-13T02:45:13.720Z,96146.59
2023-05-13T02:47:42.560Z,96151.72
2023-05-13T02:50:12.730Z,96156.00
2023-05-13T02:52:42.681Z,96150.09
2023-05-13T02:55:12.097Z,96158.69
2023-05-13T02:57:41.267Z,96150.78
2023-05-13T03:00:11.440Z,96152.53
2023-05-13T03:02:41.893Z,96148.22
2023-05-13T03:05:11.458Z,96142.31
2023-05-13T03:07:40.363Z,96149.03
2023-05-13T03:10:10.902Z,96151.84
2023-05-13T03:12:39.893Z,96146.72
2023-05-13T03:15:09.544Z,96148.56
2023-05-13T03:17:38.210Z,96149.28
2023-05-13T03:20:09.834Z,96155.91
2023-05-13T03:22:39.150Z,96150.69
2023-05-13T03:25:08.589Z,96153.47
2023-05-13T03:27:37.476Z,96154.41
2023-05-13T03:30:07.291Z,96157.66
2023-05-13T03:32:36.985Z,96156.00
2023-05-13T03:35:07.830Z,96161.03
2023-05-13T03:37:36.547Z,96156.13
2023-05-13T03:40:06.228Z,96160.09
2023-05-13T03:42:34.918Z,96161.72
2023-05-13T03:45:03.699Z,96157.44
2023-05-13T03:47:32.535Z,96161.72
2023-05-13T03:50:01.297Z,96163.38
2023-05-13T03:52:31.693Z,96166.06
2023-05-13T03:55:00.259Z,96166.13
2023-05-13T03:57:28.782Z,96170.47
2023-05-13T03:59:57.566Z,96173.03
2023-05-13T04:02:29.303Z,96174.75
2023-05-13T04:04:58.047Z,96173.94
2023-05-13T04:07:26.574Z,96182.22
2023-05-13T04:09:56.779Z,96176.97
2023-05-13T04:12:25.935Z,96191.31
2023-05-13T04:14:55.057Z,96189.44
2023-05-13T04:17:23.733Z,96187.09
2023-05-13T04:19:54.575Z,96188.75
2023-05-13T04:22:23.172Z,96184.44
2023-05-13T04:24:56.758Z,96183.63
2023-05-13T04:27:26.802Z,96192.91
2023-05-13T04:29:56.290Z,96176.84
2023-05-13T04:32:24.938Z,96186.06
2023-05-13T04:34:54.816Z,96186.88
2023-05-13T04:37:23.650Z,96191.78
2023-05-13T04:39:52.612Z,96194.34
2023-05-13T04:42:21.392Z,96185.94
2023-05-13T04:44:51.766Z,96191.66
2023-05-13T04:47:22.205Z,96195.03
2023-05-13T04:49:51.329Z,96198.31
2023-05-13T04:52:20.267Z,96194.81
2023-05-13T04:54:49.099Z,96196.91
2023-05-13T04:57:17.419Z,96204.34
2023-05-13T04:59:46.124Z,96203.44
2023-05-13T05:02:16.447Z,96198.06
2023-05-13T05:04:46.370Z,96207.13
2023-05-13T05:07:14.967Z,96208.91
2023-05-13T05:09:43.745Z,96196.81
2023-05-13T05:12:12.511Z,96206.00
2023-05-13T05:14:41.480Z,96209.94
2023-05-13T05:17:10.406Z,96214.03
2023-05-13T05:19:40.816Z,96207.13
2023-05-13T05:22:09.119Z,96207.84
2023-05-13T05:24:37.840Z,96212.19
2023-05-13T05:27:06.598Z,96211.22
2023-05-13T05:29:35.272Z,96207.97
2023-05-13T05:32:04.449Z,96213.69
2023-05-13T05:34:33.420Z,96215.22
2023-05-13T05:37:03.802Z,96213.91
2023-05-13T05:39:32.522Z,96214.63
2023-05-13T05:42:01.089Z,96221.94
2023-05-13T05:44:30.463Z,96211.59
2023-05-13T05:46:58.968Z,96206.94
2023-05-13T05:49:27.948Z,96212.06
2023-05-13T05:51:56.688Z,96216.47
2023-05-13T05:54:27.184Z,96214.50
2023-05-13T05:56:55.864Z,96214.06
2023-05-13T05:59:24.673Z,96178.06
2023-05-13T06:01:53.419Z,96210.69
2023-05-13T06:04:22.238Z,96213.72
2023-05-13T06:06:51.076Z,96213.22
2023-05-13T06:09:19.794Z,96218.69
2023-05-13T06:11:49.847Z,96225.22
2023-05-13T06:14:18.864Z,96221.97
2023-05-13T06:16:47.456Z,96220.00
2023-05-13T06:19:16.961Z,96220.00
2023-05-13T06:21:46.171Z,96222.22
2023-05-13T06:24:15.119Z,96221.75
2023-05-13T06:26:44.510Z,96227.69
2023-05-13T06:29:14.938Z,96220.91
2023-05-13T06:31:44.091Z,96226.28
2023-05-13T06:34:16.883Z,96224.88
2023-05-13T06:36:45.538Z,96226.03
2023-05-13T06:39:15.619Z,96228.84
2023-05-13T06:41:44.416Z,96224.88
2023-05-13T06:44:14.864Z,96239.34
2023-05-13T06:46:43.702Z,96233.38
2023-05-13T06:49:12.501Z,96237.94
2023-05-13T06:51:40.983Z,96234.56
2023-05-13T06:54:10.310Z,96237.69
2023-05-13T06:56:39.442Z,96241.19
2023-05-13T06:59:08.472Z,96242.13
2023-05-13T07:01:38.882Z,96244.03
2023-05-13T07:04:08.018Z,96236.75
2023-05-13T07:06:36.678Z,96242.38
2023-05-13T07:09:08.424Z,96235.84
2023-05-13T07:11:37.215Z,96241.88
2023-05-13T07:14:05.817Z,96248.66
2023-05-13T07:16:34.409Z,96248.41
2023-05-13T07:19:04.800Z,96246.56
2023-05-13T07:21:33.475Z,96243.38
2023-05-13T07:24:02.530Z,96251.19
2023-05-13T07:26:31.284Z,96247.25
2023-05-13T07:29:00.843Z,96240.34
2023-05-13T07:31:30.930Z,96240.22
2023-05-13T07:34:00.063Z,96246.84
2023-05-13T07:36:30.538Z,96256.38
2023-05-13T07:38:59.532Z,96252.03
2023-05-13T07:41:29.137Z,96263.63
2023-05-13T07:43:57.908Z,96268.03
2023-05-13T07:46:26.832Z,96265.34
2023-05-13T07:48:55.756Z,96270.06
2023-05-13T07:51:24.541Z,96273.19
2023-05-13T07:53:55.169Z,96277.44
2023-05-13T07:56:23.569Z,96278.38
2023-05-13T07:58:52.561Z,96278.84
2023-05-13T08:01:21.362Z,96271.41
2023-05-13T08:03:50.540Z,96274.22
2023-05-13T08:06:19.882Z,96275.13
2023-05-13T08:08:48.917Z,96282.34
2023-05-13T08:11:19.013Z,96278.38
2023-05-13T08:13:48.208Z,96275.69
2023-05-13T08:16:16.806Z,96281.25
2023-05-13T08:18:45.780Z,96276.88
2023-05-13T08:21:15.148Z,96288.78
2023-05-13T08:23:45.725Z,96280.28
2023-05-13T08:26:15.487Z,96289.97
2023-05-13T08:28:45.757Z,96285.94
2023-05-13T08:31:15.035Z,96293.63
2023-05-13T08:33:46.149Z,96292.56
2023-05-13T08:36:15.051Z,96295.13
2023-05-13T08:38:44.213Z,96290.91
2023-05-13T08:41:14.343Z,96299.31
2023-05-13T08:43:45.759Z,96292.44
2023-05-13T08:46:15.006Z,96309.38
2023-05-13T08:48:43.968Z,96289.72
2023-05-13T08:51:13.610Z,96294.88
2023-05-13T08:53:42.247Z,96287.22
2023-05-13T08:56:12.209Z,96292.63
2023-05-13T08:58:40.820Z,96293.63
2023-05-13T09:01:11.212Z,96288.44
2023-05-13T09:03:45.111Z,96296.16
2023-05-13T09:06:14.155Z,96294.81
2023-05-13T09:08:43.306Z,96303.31
2023-05-13T09:11:12.472Z,96298.34
2023-05-13T09:13:40.950Z,96304.66
2023-05-13T09:16:13.288Z,96302.06
2023-05-13T09:18:43.651Z,96301.22
2023-05-13T09:21:26.250Z,96295.19
2023-05-13T09:24:11.417Z,96300.03
2023-05-13T09:26:41.849Z,96297.00
2023-05-13T09:29:23.896Z,96296.47
2023-05-13T09:31:55.779Z,96306.78
2023-05-13T09:34:27.813Z,96304.63
2023-05-13T09:36:58.144Z,96301.91
2023-05-13T09:39:27.137Z,96308.72
2023-05-13T09:41:55.654Z,96302.34
2023-05-13T09:44:24.248Z,96304.47
2023-05-13T09:46:56.605Z,96294.06
2023-05-13T09:49:26.135Z,96305.25
2023-05-13T09:51:55.282Z,96301.44
2023-05-13T09:54:23.565Z,96305.78
2023-05-13T09:57:00.318Z,96302.22
2023-05-13T09:59:29.532Z,96303.25
2023-05-13T10:02:01.597Z,96299.53
2023-05-13T10:04:31.071Z,96292.34
2023-05-13T10:07:00.309Z,96303.50
2023-05-13T10:09:30.870Z,96301.88
2023-05-13T10:12:00.722Z,96302.00
2023-05-13T10:14:29.983Z,96308.25
2023-05-13T10:17:00.903Z,96312.44
2023-05-13T10:19:29.905Z,96310.53
2023-05-13T10:21:58.864Z,96311.47
2023-05-13T10:24:29.316Z,96314.97
2023-05-13T10:26:58.359Z,96317.13
2023-05-13T10:29:28.404Z,96321.97
2023-05-13T10:31:57.329Z,96324.53
2023-05-13T10:34:28.196Z,96322.03
2023-05-13T10:37:08.925Z,96324.19
2023-05-13T10:39:53.739Z,96327.00
2023-05-13T10:42:42.892Z,96280.63
2023-05-13T10:45:12.462Z,96318.91
2023-05-13T10:47:41.136Z,96315.53
2023-05-13T10:50:24.986Z,96310.91
2023-05-13T10:52:58.106Z,96306.31
2023-05-13T10:55:31.595Z,96317.75
2023-05-13T10:58:09.360Z,96319.25
2023-05-13T11:00:40.100Z,96320.06
2023-05-13T11:03:16.654Z,96321.81
2023-05-13T11:05:48.715Z,96320.19
2023-05-13T11:08:37.770Z,96318.31
2023-05-13T11:11:19.538Z,96321.25
2023-05-13T11:13:49.052Z,96326.25
2023-05-13T11:16:18.381Z,96313.88
2023-05-13T11:18:47.889Z,96321.59
2023-05-13T11:21:18.125Z,96324.56
2023-05-13T11:23:58.547Z,96316.03
2023-05-13T11:26:27.227Z,96323.06
2023-05-13T11:29:01.381Z,96329.25
2023-05-13T11:31:30.562Z,96323.81
2023-05-13T11:34:10.147Z,96322.25
2023-05-13T11:36:41.460Z,96330.25
2023-05-13T11:39:15.464Z,96320.72
2023-05-13T11:41:46.038Z,96339.13
2023-05-13T11:44:16.534Z,96327.66
2023-05-13T11:46:57.504Z,96340.78
2023-05-13T11:49:33.835Z,96344.56
2023-05-13T11:52:05.006Z,96326.53
2023-05-13T11:54:33.544Z,96352.78
2023-05-13T11:57:02.372Z,96349.84
2023-05-13T11:59:38.523Z,96348.72
2023-05-13T12:02:10.655Z,96343.06
2023-05-13T12:04:39.368Z,96343.63
2023-05-13T12:07:13.332Z,96335.38
2023-05-13T12:09:42.117Z,96339.22
2023-05-13T12:12:11.340Z,96330.88
2023-05-13T12:14:40.318Z,96329.47
2023-05-13T12:17:10.734Z,96323.13
2023-05-13T12:19:39.627Z,96328.59
2023-05-13T12:22:10.142Z,96329.53
2023-05-13T12:24:38.940Z,96325.31
2023-05-13T12:27:10.106Z,96324.38
2023-05-13T12:29:43.799Z,96324.22
2023-05-13T12:32:12.995Z,96328.41
2023-05-13T12:34:42.091Z,96326.13
2023-05-13T12:37:15.836Z,96338.84
2023-05-13T12:39:45.511Z,96334.81
2023-05-13T12:42:17.751Z,96331.03
2023-05-13T12:44:47.104Z,96332.53
2023-05-13T12:47:20.268Z,96330.75
2023-05-13T12:49:56.137Z,96328.34
2023-05-13T12:52:26.414Z,96334.56
2023-05-13T12:54:55.565Z,96336.75
2023-05-13T12:57:24.634Z,96337.31
2023-05-13T12:59:53.536Z,96329.13
2023-05-13T13:02:22.261Z,96329.69
2023-05-13T13:04:51.542Z,96326.81
2023-05-13T13:07:20.324Z,96338.91
2023-05-13T13:09:50.322Z,96331.47
2023-05-13T13:12:18.664Z,96335.00
2023-05-13T13:14:47.440Z,96339.72
2023-05-13T13:17:16.132Z,96331.84
2023-05-13T13:19:45.179Z,96335.13
2023-05-13T13:22:13.821Z,96330.78
2023-05-13T13:24:42.607Z,96332.13
2023-05-13T13:27:13.637Z,96333.50
2023-05-13T13:29:43.011Z,96332.13
2023-05-13T13:32:11.981Z,96335.38
2023-05-13T13:34:41.121Z,96326.69
2023-05-13T13:37:10.144Z,96336.19
2023-05-13T13:39:38.892Z,96336.88
2023-05-13T13:42:08.058Z,96335.50
2023-05-13T13:44:39.796Z,96333.63
2023-05-13T13:47:08.415Z,96326.47
2023-05-13T13:49:37.150Z,96327.25
2023-05-13T13:52:06.650Z,96328.47
2023-05-13T13:54:35.101Z,96322.38
2023-05-13T13:57:04.313Z,96329.53
2023-05-13T13:59:33.248Z,96332.94
2023-05-13T14:02:03.849Z,96317.69
2023-05-13T14:04:34.755Z,96328.81
2023-05-13T14:07:05.370Z,96327.16
2023-05-13T14:09:34.280Z,96327.16
2023-05-13T14:12:03.087Z,96323.47
2023-05-13T14:14:31.690Z,96325.78
2023-05-13T14:17:00.385Z,96337.19
2023-05-13T14:19:30.569Z,96338.66
2023-05-13T14:21:59.017Z,96339.72
2023-05-13T14:24:28.504Z,96329.94
2023-05-13T14:26:57.458Z,96332.66
2023-05-13T14:29:27.085Z,96328.16
2023-05-13T14:31:55.991Z,96337.19
2023-05-13T14:34:25.282Z,96333.50
2023-05-13T14:36:55.246Z,96323.34
2023-05-13T14:39:24.969Z,96338.22
2023-05-13T14:41:53.371Z,96330.63
2023-05-13T14:44:21.892Z,96327.78
2023-05-13T14:46:50.751Z,96325.47
2023-05-13T14:49:19.962Z,96325.41
2023-05-13T14:51:48.554Z,96321.94
2023-05-13T14:54:19.146Z,96325.31
2023-05-13T14:56:47.911Z,96324.78
2023-05-13T14:59:17.250Z,96322.63
2023-05-13T15:01:46.085Z,96321.56
2023-05-13T15:04:15.688Z,96321.38
2023-05-13T15:06:44.535Z,96319.22
2023-05-13T15:09:13.713Z,96320.69
2023-05-13T15:11:43.760Z,96327.41
2023-05-13T15:14:12.567Z,96321.75
2023-05-13T15:16:41.377Z,96322.25
2023-05-13T15:19:10.839Z,96319.06
2023-05-13T15:21:39.661Z,96323.16
2023-05-13T15:24:08.676Z,96317.19
2023-05-13T15:26:37.559Z,96322.22
2023-05-13T15:29:08.144Z,96297.78
2023-05-13T15:31:36.964Z,96319.91
2023-05-13T15:34:05.966Z,96322.91
2023-05-13T15:36:35.650Z,96316.94
2023-05-13T15:39:04.716Z,96316.00
2023-05-13T15:41:33.640Z,96312.06
2023-05-13T15:44:02.387Z,96315.41
2023-05-13T15:46:33.806Z,96313.03
2023-05-13T15:49:02.748Z,96326.63
2023-05-13T15:51:31.880Z,96318.19
2023-05-13T15:54:01.558Z,96318.31
2023-05-13T15:56:30.649Z,96311.00
2023-05-13T15:58:59.318Z,96315.91
2023-05-13T16:01:28.104Z,96313.75
2023-05-13T16:03:58.235Z,96315.34
2023-05-13T16:06:30.061Z,96318.47
2023-05-13T16:09:01.190Z,96316.97
2023-05-13T16:11:30.742Z,96308.78
2023-05-13T16:13:59.545Z,96305.25
2023-05-13T16:16:28.453Z,96309.88
2023-05-13T16:18:58.666Z,96310.91
2023-05-13T16:21:27.461Z,96300.81
2023-05-13T16:23:56.198Z,96300.25
2023-05-13T16:26:25.008Z,96306.44
2023-05-13T16:28:53.599Z,96312.22
2023-05-13T16:31:22.716Z,96312.50
2023-05-13T16:33:51.594Z,96306.66
2023-05-13T16:36:24.883Z,96308.66
2023-05-13T16:38:53.700Z,96312.63
2023-05-13T16:41:22.971Z,96307.97
2023-05-13T16:43:51.963Z,96308.19
2023-05-13T16:46:20.947Z,96296.22
2023-05-13T16:48:49.505Z,96293.28
2023-05-13T16:51:19.002Z,96297.41
2023-05-13T16:53:48.979Z,96291.44
2023-05-13T16:56:17.988Z,96289.38
2023-05-13T16:58:47.246Z,96295.81
2023-05-13T17:01:16.141Z,96297.56
2023-05-13T17:03:45.187Z,96298.47
2023-05-13T17:06:14.573Z,96309.34
2023-05-13T17:08:43.871Z,96301.66
2023-05-13T17:11:16.996Z,96301.66
2023-05-13T17:13:45.838Z,96305.41
2023-05-13T17:16:14.469Z,96304.75
2023-05-13T17:18:43.457Z,96305.59
2023-05-13T17:21:12.234Z,96308.53
2023-05-13T17:23:41.313Z,96305.50
2023-05-13T17:26:09.973Z,96305.78
2023-05-13T17:28:41.071Z,96307.31
2023-05-13T17:31:10.037Z,96301.50
2023-05-13T17:33:38.900Z,96306.19
2023-05-13T17:36:07.857Z,96302.13
2023-05-13T17:38:36.889Z,96306.81
2023-05-13T17:41:05.799Z,96310.06
2023-05-13T17:43:34.504Z,96305.03
2023-05-13T17:46:05.549Z,96309.84
2023-05-13T17:48:34.364Z,96303.91
2023-05-13T17:51:02.915Z,96300.16
2023-05-13T17:53:34.406Z,96309.59
2023-05-13T17:56:03.541Z,96308.56
2023-05-13T17:58:32.766Z,96312.66
2023-05-13T18:01:01.755Z,96311.25
2023-05-13T18:03:31.785Z,96310.34
2023-05-13T18:06:00.944Z,96313.50
2023-05-13T18:08:29.653Z,96317.44
2023-05-13T18:10:58.328Z,96327.25
2023-05-13T18:13:26.872Z,96321.91
2023-05-13T18:15:56.295Z,96318.44
2023-05-13T18:18:25.167Z,96328.47
2023-05-13T18:20:58.655Z,96325.56
2023-05-13T18:23:27.594Z,96328.38
2023-05-13T18:25:56.553Z,96306.47
2023-05-13T18:28:25.683Z,96333.06
2023-05-13T18:30:54.261Z,96326.38
2023-05-13T18:33:23.191Z,96330.81
2023-05-13T18:35:52.234Z,96329.78
2023-05-13T18:38:22.618Z,96326.63
2023-05-13T18:40:51.210Z,96328.25
2023-05-13T18:43:19.946Z,96327.56
2023-05-13T18:45:48.529Z,96323.13
2023-05-13T18:48:17.002Z,96325.81
2023-05-13T18:50:45.489Z,96331.06
2023-05-13T18:53:14.240Z,96333.75
2023-05-13T18:55:45.054Z,96332.22
2023-05-13T18:58:14.005Z,96331.56
2023-05-13T19:00:43.004Z,96335.75
2023-05-13T19:03:12.224Z,96336.69
2023-05-13T19:05:40.843Z,96334.22
2023-05-13T19:08:12.348Z,96333.28
2023-05-13T19:10:41.282Z,96331.09
2023-05-13T19:13:11.499Z,96332.00
2023-05-13T19:15:40.321Z,96323.72
2023-05-13T19:18:08.911Z,96327.25
2023-05-13T19:20:37.940Z,96326.06
2023-05-13T19:23:06.630Z,96327.94
2023-05-13T19:25:35.826Z,96333.28
2023-05-13T19:28:04.697Z,96335.19
2023-05-13T19:30:34.967Z,96330.97
2023-05-13T19:33:04.490Z,96334.34
2023-05-13T19:35:33.798Z,96333.53
2023-05-13T19:38:02.754Z,96336.78
2023-05-13T19:40:31.608Z,96335.72
2023-05-13T19:43:00.700Z,96330.03
2023-05-13T19:45:29.762Z,96337.03
2023-05-13T19:47:59.864Z,96330.13
2023-05-13T19:50:28.333Z,96330.97
2023-05-13T19:52:57.474Z,96334.47
2023-05-13T19:55:27.075Z,96332.63
2023-05-13T19:57:56.230Z,96326.53
2023-05-13T20:00:25.384Z,96335.84
2023-05-13T20:02:54.200Z,96334.94
2023-05-13T20:05:24.361Z,96331.44
2023-05-13T20:07:53.180Z,96333.06
2023-05-13T20:10:22.632Z,96324.69
2023-05-13T20:12:51.748Z,96323.84
2023-05-13T20:15:20.834Z,96328.16
2023-05-13T20:17:50.050Z,96322.22
2023-05-13T20:20:19.842Z,96329.81
2023-05-13T20:22:51.360Z,96323.59
2023-05-13T20:25:20.394Z,96320.47
2023-05-13T20:27:50.171Z,96331.44
2023-05-13T20:30:20.983Z,96335.72
2023-05-13T20:32:50.493Z,96308.47
2023-05-13T20:35:20.123Z,96337.50
2023-05-13T20:37:51.340Z,96340.19
2023-05-13T20:40:20.496Z,96322.69
2023-05-13T20:42:50.420Z,96304.97
2023-05-13T20:45:19.947Z,96331.44
2023-05-13T20:47:49.868Z,96328.75
2023-05-13T20:50:18.803Z,96330.03
2023-05-13T20:52:47.873Z,96329.81
2023-05-13T20:55:18.010Z,96322.91
2023-05-13T20:57:47.245Z,96321.16
2023-05-13T21:00:16.523Z,96320.25
2023-05-13T21:02:45.436Z,96318.34
2023-05-13T21:05:14.291Z,96320.84
2023-05-13T21:07:43.412Z,96317.44
2023-05-13T21:10:14.315Z,96310.06
2023-05-13T21:12:47.988Z,96303.31
2023-05-13T21:15:16.869Z,96300.88
2023-05-13T21:17:46.652Z,96299.34
2023-05-13T21:20:17.613Z,96297.03
2023-05-13T21:22:46.455Z,96292.97
2023-05-13T21:25:15.303Z,96291.31
2023-05-13T21:27:46.213Z,96292.97
2023-05-13T21:30:15.580Z,96291.56
2023-05-13T21:32:44.473Z,96295.06
2023-05-13T21:35:13.743Z,96301.13
2023-05-13T21:37:43.000Z,96299.38
2023-05-13T21:40:12.735Z,96284.91
2023-05-13T21:42:42.064Z,96283.16
2023-05-13T21:45:13.707Z,96283.28
2023-05-13T21:47:42.504Z,96286.69
2023-05-13T21:50:12.388Z,96284.81
2023-05-13T21:52:41.360Z,96288.19
2023-05-13T21:55:11.186Z,96287.47
2023-05-13T21:57:40.306Z,96291.56
2023-05-13T22:00:15.547Z,96293.31
2023-05-13T22:02:44.686Z,96284.81
2023-05-13T22:05:13.543Z,96283.03
2023-05-13T22:07:42.546Z,96285.72
2023-05-13T22:10:11.736Z,96284.91
2023-05-13T22:12:41.239Z,96288.06
2023-05-13T22:15:12.762Z,96284.56
2023-05-13T22:17:42.027Z,96281.06
2023-05-13T22:20:12.552Z,96283.75
2023-05-13T22:22:41.379Z,96278.88
2023-05-13T22:25:10.531Z,96280.59
2023-05-13T22:27:39.011Z,96281.53
2023-05-13T22:30:09.342Z,96278.28
2023-05-13T22:32:39.344Z,96274.44
2023-05-13T22:35:09.502Z,96268.72
2023-05-13T22:37:39.129Z,96272.44
2023-05-13T22:40:09.079Z,96269.97
2023-05-13T22:42:37.816Z,96273.34
2023-05-13T22:45:07.385Z,96273.25
2023-05-13T22:47:37.390Z,96269.66
2023-05-13T22:50:08.967Z,96270.38
2023-05-13T22:52:37.764Z,96268.84
2023-05-13T22:55:06.734Z,96265.31
2023-05-13T22:57:37.933Z,96266.16
2023-05-13T23:00:08.146Z,96266.16
2023-05-13T23:02:39.378Z,96257.75
2023-05-13T23:05:10.226Z,96256.97
2023-05-13T23:07:38.744Z,96257.88
2023-05-13T23:10:10.371Z,96251.94
2023-05-13T23:12:39.247Z,96251.84
2023-05-13T23:15:08.632Z,96250.88
2023-05-13T23:17:37.020Z,96246.59
2023-05-13T23:20:06.698Z,96247.50
2023-05-13T23:22:36.810Z,96249.69
2023-05-13T23:25:08.982Z,96244.09
2023-05-13T23:27:37.816Z,96251.91
2023-05-13T23:30:07.648Z,96244.47
2023-05-13T23:32:37.143Z,96245.63
2023-05-13T23:35:06.449Z,96240.03
2023-05-13T23:37:36.622Z,96243.75
2023-05-13T23:40:05.810Z,96236.28
2023-05-13T23:42:34.594Z,96232.34
2023-05-13T23:45:03.175Z,96231.78
2023-05-13T23:47:32.313Z,96228.50
2023-05-13T23:50:01.135Z,96231.38
2023-05-13T23:52:30.043Z,96224.75
2023-05-13T23:55:00.599Z,96231.88
2023-05-13T23:57:29.573Z,96225.56
2023-05-13T23:59:58.908Z,96228.13
